createdAt,value
2018-04-14T00:02:04.734Z,59.98
2018-04-14T00:04:33.690Z,59.85
2018-04-14T00:07:02.844Z,61.64
2018-04-14T00:09:31.813Z,61.53
2018-04-14T00:12:12.853Z,60.85
2018-04-14T00:14:41.987Z,60.95
2018-04-14T00:17:10.951Z,61.38
2018-04-14T00:19:40.067Z,61.41
2018-04-14T00:22:09.406Z,61.55
2018-04-14T00:24:38.434Z,61.69
2018-04-14T00:27:07.732Z,61.92
2018-04-14T00:29:36.724Z,61.54
2018-04-14T00:32:05.685Z,61.20
2018-04-14T00:34:34.830Z,61.12
2018-04-14T00:37:03.811Z,60.98
2018-04-14T00:39:33.217Z,61.15
2018-04-14T00:42:02.257Z,61.18
2018-04-14T00:44:31.373Z,61.31
2018-04-14T00:47:00.829Z,60.91
2018-04-14T00:49:29.934Z,60.79
2018-04-14T00:51:59.094Z,60.68
2018-04-14T00:54:28.198Z,60.78
2018-04-14T00:56:57.969Z,60.68
2018-04-14T00:59:26.976Z,60.40
2018-04-14T01:01:56.267Z,60.12
2018-04-14T01:04:25.071Z,60.09
2018-04-14T01:06:54.106Z,60.11
2018-04-14T01:09:23.217Z,60.16
2018-04-14T01:11:52.732Z,60.05
2018-04-14T01:14:21.882Z,59.95
2018-04-14T01:16:50.993Z,60.35
2018-04-14T01:19:20.247Z,59.87
2018-04-14T01:21:49.251Z,59.70
2018-04-14T01:24:18.266Z,59.81
2018-04-14T01:26:47.785Z,59.59
2018-04-14T01:29:17.223Z,59.50
2018-04-14T01:31:46.605Z,59.76
2018-04-14T01:34:15.747Z,59.57
2018-04-14T01:36:44.888Z,59.64
2018-04-14T01:39:14.068Z,59.79
2018-04-14T01:41:42.981Z,59.91
2018-04-14T01:44:11.971Z,59.97
2018-04-14T01:46:41.229Z,59.86
2018-04-14T01:49:10.694Z,59.76
2018-04-14T01:51:40.009Z,60.36
2018-04-14T01:54:09.055Z,60.36
2018-04-14T01:56:38.118Z,60.67
2018-04-14T01:59:07.335Z,61.28
2018-04-14T02:01:36.680Z,61.28
2018-04-14T02:04:05.715Z,61.03
2018-04-14T02:06:35.037Z,60.92
2018-04-14T02:09:03.719Z,60.76
2018-04-14T02:29:11.582Z,61.21
2018-04-14T02:31:40.259Z,61.27
2018-04-14T02:34:09.254Z,61.66
2018-04-14T02:36:38.274Z,61.68
2018-04-14T02:39:07.797Z,61.80
2018-04-14T02:41:36.783Z,61.53
2018-04-14T02:44:05.790Z,61.62
2018-04-14T02:46:34.737Z,61.62
2018-04-14T02:49:03.761Z,61.84
2018-04-14T02:51:33.084Z,62.12
2018-04-14T02:54:02.047Z,62.05
2018-04-14T02:56:31.014Z,62.11
2018-04-14T02:59:00.023Z,62.25
2018-04-14T03:01:29.122Z,62.51
2018-04-14T03:03:58.070Z,62.43
2018-04-14T03:06:27.066Z,62.69
2018-04-14T03:08:56.014Z,62.62
2018-04-14T03:11:25.066Z,62.22
2018-04-14T03:13:54.065Z,62.72
2018-04-14T03:16:23.010Z,62.51
2018-04-14T03:18:51.945Z,62.50
2018-04-14T03:21:20.943Z,62.62
2018-04-14T03:23:50.254Z,62.59
2018-04-14T03:26:19.224Z,62.28
2018-04-14T03:28:48.226Z,62.33
2018-04-14T03:31:17.226Z,62.48
2018-04-14T03:33:46.334Z,62.48
2018-04-14T03:36:15.689Z,62.20
2018-04-14T03:38:44.652Z,62.24
2018-04-14T03:41:13.630Z,62.59
2018-04-14T03:43:42.718Z,62.16
2018-04-14T03:46:11.663Z,62.38
2018-04-14T03:48:40.881Z,62.53
2018-04-14T03:51:09.886Z,62.51
2018-04-14T03:53:38.837Z,62.68
2018-04-14T03:56:07.796Z,62.84
2018-04-14T03:58:36.881Z,62.81
2018-04-14T04:01:05.847Z,62.85
2018-04-14T04:03:34.853Z,63.07
2018-04-14T04:06:03.879Z,63.45
2018-04-14T04:08:33.120Z,63.43
2018-04-14T04:11:02.072Z,63.45
2018-04-14T04:13:31.125Z,63.92
2018-04-14T04:16:00.078Z,63.73
2018-04-14T04:18:40.094Z,63.70
2018-04-14T04:21:20.087Z,63.54
2018-04-14T04:24:00.475Z,63.43
2018-04-14T04:26:29.432Z,63.78
2018-04-14T04:28:58.378Z,64.19
2018-04-14T04:31:27.419Z,63.62
2018-04-14T04:33:56.358Z,63.40
2018-04-14T04:36:25.293Z,62.98
2018-04-14T04:38:54.371Z,63.13
2018-04-14T04:41:23.610Z,63.29
2018-04-14T04:43:52.569Z,63.13
2018-04-14T04:46:21.612Z,63.36
2018-04-14T04:48:50.638Z,63.50
2018-04-14T04:51:19.798Z,63.64
2018-04-14T04:53:48.803Z,63.66
2018-04-14T04:56:17.751Z,63.41
2018-04-14T04:58:46.707Z,63.47
2018-04-14T05:01:15.714Z,63.79
2018-04-14T05:03:44.686Z,63.57
2018-04-14T05:06:13.694Z,63.99
2018-04-14T05:08:42.762Z,63.62
2018-04-14T05:11:11.709Z,63.73
2018-04-14T05:13:40.641Z,63.55
2018-04-14T05:16:09.654Z,63.71
2018-04-14T05:18:38.907Z,63.67
2018-04-14T05:21:07.847Z,63.73
2018-04-14T05:23:36.695Z,63.95
2018-04-14T05:26:05.695Z,63.79
2018-04-14T05:28:34.630Z,63.70
2018-04-14T05:31:03.676Z,63.44
2018-04-14T05:33:32.802Z,63.13
2018-04-14T05:36:01.777Z,63.16
2018-04-14T05:38:30.796Z,62.79
2018-04-14T05:41:00.002Z,62.27
2018-04-14T05:43:28.978Z,61.86
2018-04-14T05:45:58.082Z,61.74
2018-04-14T05:48:27.324Z,61.66
2018-04-14T05:50:56.447Z,61.54
2018-04-14T05:53:25.924Z,61.40
2018-04-14T05:55:54.920Z,61.23
2018-04-14T05:58:23.927Z,61.54
2018-04-14T06:00:52.939Z,61.59
2018-04-14T06:03:21.919Z,62.17
2018-04-14T06:05:50.859Z,61.55
2018-04-14T06:08:20.030Z,61.13
2018-04-14T06:10:49.135Z,61.23
2018-04-14T06:13:18.153Z,60.81
2018-04-14T06:15:47.130Z,60.65
2018-04-14T06:24:22.908Z,60.00
2018-04-14T06:26:55.563Z,59.69
2018-04-14T06:29:26.449Z,59.29
2018-04-14T06:31:57.108Z,59.38
2018-04-14T06:34:28.916Z,59.10
2018-04-14T06:36:59.914Z,58.17
2018-04-14T06:39:31.039Z,58.21
2018-04-14T06:42:01.793Z,58.79
2018-04-14T06:44:34.901Z,57.07
2018-04-14T06:47:04.456Z,57.23
2018-04-14T06:49:35.272Z,56.63
2018-04-14T06:52:06.231Z,56.20
2018-04-14T06:54:36.734Z,56.54
2018-04-14T06:57:07.994Z,56.63
2018-04-14T06:59:38.862Z,56.21
2018-04-14T07:02:09.971Z,56.52
2018-04-14T07:04:40.977Z,56.41
2018-04-14T07:07:11.982Z,56.03
2018-04-14T07:09:42.927Z,56.09
2018-04-14T07:12:13.618Z,56.01
2018-04-14T07:14:44.699Z,55.22
2018-04-14T07:17:15.772Z,54.14
2018-04-14T07:19:46.779Z,55.04
2018-04-14T07:22:19.182Z,54.93
2018-04-14T07:24:49.657Z,54.65
2018-04-14T07:27:20.484Z,54.14
2018-04-14T07:29:51.238Z,54.34
2018-04-14T07:32:22.098Z,54.64
2018-04-14T07:34:58.494Z,55.01
2018-04-14T07:37:28.263Z,54.38
2018-04-14T07:39:57.085Z,54.61
2018-04-14T07:42:26.137Z,54.38
2018-04-14T07:44:57.009Z,54.15
2018-04-14T07:47:27.821Z,53.22
2018-04-14T07:49:58.854Z,52.87
2018-04-14T07:52:29.901Z,52.51
2018-04-14T07:55:00.884Z,52.86
2018-04-14T07:57:31.497Z,52.68
2018-04-14T08:00:02.783Z,51.61
2018-04-14T08:02:33.788Z,52.14
2018-04-14T08:05:04.904Z,52.38
2018-04-14T08:07:35.899Z,51.66
2018-04-14T08:10:07.310Z,51.04
2018-04-14T08:12:38.096Z,51.55
2018-04-14T08:15:08.977Z,51.58
2018-04-14T08:17:39.825Z,51.61
2018-04-14T08:20:10.979Z,51.67
2018-04-14T08:22:41.630Z,50.53
2018-04-14T08:25:12.617Z,51.43
2018-04-14T08:27:43.742Z,51.18
2018-04-14T08:30:14.829Z,50.95
2018-04-14T08:32:45.814Z,50.27
2018-04-14T08:35:16.826Z,49.58
2018-04-14T08:37:52.858Z,49.16
2018-04-14T08:40:21.856Z,48.60
2018-04-14T08:42:50.819Z,49.37
2018-04-14T08:45:21.485Z,49.20
2018-04-14T08:47:52.313Z,49.33
2018-04-14T08:50:22.824Z,49.36
2018-04-14T08:52:53.805Z,48.99
2018-04-14T08:55:24.788Z,48.71
2018-04-14T08:57:55.820Z,48.60
2018-04-14T09:00:26.818Z,48.48
2018-04-14T09:02:57.835Z,48.11
2018-04-14T09:05:28.834Z,48.07
2018-04-14T09:07:59.858Z,47.94
2018-04-14T09:10:30.816Z,47.09
2018-04-14T09:13:01.860Z,47.06
2018-04-14T09:15:32.838Z,46.99
2018-04-14T09:18:03.899Z,46.78
2018-04-14T09:20:34.717Z,46.57
2018-04-14T09:23:05.753Z,46.83
2018-04-14T09:25:36.943Z,46.17
2018-04-14T09:28:07.860Z,46.71
2018-04-14T09:30:38.861Z,46.41
2018-04-14T09:33:09.936Z,46.69
2018-04-14T09:35:40.874Z,47.17
2018-04-14T09:38:11.944Z,47.38
2018-04-14T09:40:42.961Z,47.41
2018-04-14T09:43:14.057Z,46.29
2018-04-14T09:45:44.874Z,44.84
2018-04-14T09:48:16.051Z,44.65
2018-04-14T09:50:46.851Z,44.56
2018-04-14T09:53:17.874Z,44.39
2018-04-14T09:55:48.850Z,45.27
2018-04-14T09:58:19.921Z,45.38
2018-04-14T10:00:56.170Z,45.71
2018-04-14T10:03:25.080Z,45.64
2018-04-14T10:05:54.121Z,45.35
2018-04-14T10:08:24.576Z,45.70
2018-04-14T10:10:55.395Z,46.12
2018-04-14T10:13:25.976Z,46.69
2018-04-14T10:15:56.922Z,46.77
2018-04-14T10:18:27.986Z,47.07
2018-04-14T10:20:58.912Z,46.42
2018-04-14T10:23:29.976Z,45.91
2018-04-14T10:26:01.066Z,45.34
2018-04-14T10:28:31.950Z,45.26
2018-04-14T10:31:02.757Z,44.98
2018-04-14T10:33:33.852Z,44.32
2018-04-14T10:36:04.979Z,43.65
2018-04-14T10:38:35.798Z,43.16
2018-04-14T10:41:06.644Z,42.90
2018-04-14T10:43:37.805Z,43.22
2018-04-14T10:46:09.055Z,42.75
2018-04-14T10:48:40.745Z,42.05
2018-04-14T10:51:11.455Z,41.19
2018-04-14T10:53:41.980Z,40.58
2018-04-14T10:56:12.734Z,40.12
2018-04-14T10:58:43.712Z,40.25
2018-04-14T11:01:14.758Z,40.64
2018-04-14T11:03:45.748Z,40.97
2018-04-14T11:06:16.962Z,40.56
2018-04-14T11:08:47.868Z,40.92
2018-04-14T11:11:18.924Z,41.28
2018-04-14T11:13:49.925Z,42.33
2018-04-14T11:16:20.963Z,41.81
2018-04-14T11:18:51.825Z,42.50
2018-04-14T11:21:22.745Z,40.79
2018-04-14T11:23:53.718Z,41.07
2018-04-14T11:26:27.275Z,41.85
2018-04-14T11:29:01.269Z,41.52
2018-04-14T11:31:30.400Z,41.18
2018-04-14T11:34:23.413Z,40.52
2018-04-14T11:36:52.442Z,40.31
2018-04-14T11:39:21.610Z,39.25
2018-04-14T11:41:50.602Z,38.53
2018-04-14T11:47:13.133Z,37.66
2018-04-14T11:49:42.357Z,38.07
2018-04-14T11:52:11.369Z,37.87
2018-04-14T11:54:40.377Z,38.15
2018-04-14T11:57:31.345Z,38.15
2018-04-14T12:00:00.423Z,37.25
2018-04-14T12:02:29.758Z,36.85
2018-04-14T12:04:58.763Z,36.39
2018-04-14T12:07:27.905Z,36.25
2018-04-14T12:09:56.907Z,36.62
2018-04-14T12:12:25.842Z,36.79
2018-04-14T12:14:54.867Z,37.04
2018-04-14T12:17:25.089Z,36.45
2018-04-14T12:19:54.277Z,36.05
2018-04-14T12:22:23.235Z,35.39
2018-04-14T12:24:52.165Z,36.01
2018-04-14T12:27:21.200Z,35.38
2018-04-14T12:29:50.153Z,35.34
2018-04-14T12:32:19.359Z,35.56
2018-04-14T12:34:48.382Z,35.15
2018-04-14T12:42:57.461Z,34.94
2018-04-14T12:45:26.910Z,34.83
2018-04-14T12:47:55.971Z,34.57
2018-04-14T12:50:24.946Z,34.13
2018-04-14T12:52:53.965Z,34.72
2018-04-14T12:55:22.976Z,34.35
2018-04-14T12:57:51.962Z,34.30
2018-04-14T13:00:20.943Z,34.62
2018-04-14T13:02:49.714Z,33.81
2018-04-14T13:05:18.771Z,34.22
2018-04-14T13:07:47.752Z,34.23
2018-04-14T13:10:16.800Z,32.69
2018-04-14T13:12:46.609Z,32.39
2018-04-14T13:15:15.903Z,32.17
2018-04-14T13:17:45.094Z,32.49
2018-04-14T13:20:14.051Z,32.32
2018-04-14T13:22:43.092Z,32.67
2018-04-14T13:25:12.030Z,32.39
2018-04-14T13:27:40.998Z,32.45
2018-04-14T13:30:10.067Z,33.21
2018-04-14T13:32:39.444Z,32.59
2018-04-14T13:35:08.675Z,33.10
2018-04-14T13:37:37.860Z,32.23
2018-04-14T13:40:07.086Z,32.98
2018-04-14T13:42:36.066Z,32.94
2018-04-14T13:45:05.314Z,33.32
2018-04-14T13:47:34.629Z,33.29
2018-04-14T13:50:03.489Z,33.04
2018-04-14T13:52:32.571Z,33.26
2018-04-14T13:55:02.078Z,33.98
2018-04-14T13:57:31.086Z,33.95
2018-04-14T14:00:00.189Z,33.73
2018-04-14T14:02:29.028Z,33.63
2018-04-14T14:04:58.468Z,32.78
2018-04-14T14:07:29.739Z,33.46
2018-04-14T14:09:58.773Z,32.39
2018-04-14T14:12:32.788Z,32.44
2018-04-14T14:15:01.783Z,32.47
2018-04-14T14:17:33.485Z,31.92
2018-04-14T14:20:02.514Z,30.87
2018-04-14T14:22:33.366Z,30.71
2018-04-14T14:25:03.948Z,30.46
2018-04-14T14:27:35.018Z,30.22
2018-04-14T14:30:05.579Z,29.89
2018-04-14T14:32:36.659Z,29.95
2018-04-14T14:35:07.628Z,30.46
2018-04-14T15:35:35.596Z,30.49
2018-04-14T15:38:04.842Z,30.51
2018-04-14T15:40:34.518Z,30.32
2018-04-14T15:43:05.109Z,30.18
2018-04-14T15:45:35.827Z,30.38
2018-04-14T15:48:06.878Z,30.24
2018-04-14T15:50:37.858Z,30.55
2018-04-14T15:53:08.920Z,30.81
2018-04-14T15:55:43.234Z,31.04
2018-04-14T15:58:12.236Z,30.23
2018-04-14T16:00:42.262Z,30.20
2018-04-14T16:03:13.044Z,30.33
2018-04-14T16:05:44.059Z,30.87
2018-04-14T16:08:14.959Z,31.15
2018-04-14T16:10:45.957Z,30.52
2018-04-14T16:13:16.918Z,31.03
2018-04-14T16:15:47.914Z,31.16
2018-04-14T16:18:18.972Z,31.26
2018-04-14T16:20:50.114Z,31.77
2018-04-14T16:23:21.130Z,30.59
2018-04-14T16:25:51.927Z,30.22
2018-04-14T16:28:23.010Z,30.58
2018-04-14T16:30:53.921Z,31.58
2018-04-14T16:33:26.438Z,30.94
2018-04-14T16:35:57.520Z,31.42
2018-04-14T16:38:27.489Z,31.43
2018-04-14T16:40:58.194Z,31.14
2018-04-14T16:43:29.002Z,30.81
2018-04-14T16:45:59.991Z,30.79
2018-04-14T16:48:31.071Z,31.55
2018-04-14T16:51:02.005Z,32.45
2018-04-14T16:53:31.932Z,32.26
2018-04-14T16:56:02.606Z,32.28
2018-04-14T16:58:33.563Z,33.04
2018-04-14T17:01:04.304Z,32.69
2018-04-14T17:03:35.385Z,32.01
2018-04-14T17:06:06.371Z,32.82
2018-04-14T17:08:38.122Z,32.39
2018-04-14T17:11:08.709Z,32.61
2018-04-14T17:13:39.431Z,32.89
2018-04-14T17:16:10.342Z,32.04
2018-04-14T17:18:41.387Z,32.26
2018-04-14T17:21:12.475Z,32.08
2018-04-14T17:23:43.429Z,32.64
2018-04-14T17:26:14.278Z,32.22
2018-04-14T17:28:46.513Z,32.77
2018-04-14T17:31:17.962Z,33.35
2018-04-14T17:33:48.794Z,34.17
2018-04-14T17:36:19.530Z,33.38
2018-04-14T17:38:50.225Z,33.92
2018-04-14T17:41:21.340Z,33.98
2018-04-14T17:43:52.145Z,34.59
2018-04-14T17:46:23.010Z,34.73
2018-04-14T17:48:54.047Z,34.91
2018-04-14T17:51:24.996Z,34.32
2018-04-14T17:53:56.062Z,33.34
2018-04-14T17:56:26.948Z,33.16
2018-04-14T17:58:57.993Z,32.58
2018-04-14T18:01:29.395Z,32.31
2018-04-14T18:04:00.005Z,32.03
2018-04-14T18:06:30.903Z,32.00
2018-04-14T18:09:02.031Z,32.34
2018-04-14T18:11:32.932Z,32.26
2018-04-14T18:14:24.009Z,32.50
2018-04-14T18:16:53.501Z,32.74
2018-04-14T18:19:22.771Z,33.32
2018-04-14T18:21:51.671Z,33.61
2018-04-14T18:24:20.754Z,33.47
2018-04-14T18:26:50.750Z,34.05
2018-04-14T18:29:19.923Z,34.84
2018-04-14T18:31:49.780Z,35.21
2018-04-14T18:34:18.836Z,34.94
2018-04-14T18:36:48.008Z,34.55
2018-04-14T18:39:17.158Z,34.62
2018-04-14T18:41:46.147Z,34.85
2018-04-14T18:44:15.898Z,35.21
2018-04-14T18:46:46.410Z,35.24
2018-04-14T18:49:17.072Z,35.36
2018-04-14T18:51:47.021Z,35.66
2018-04-14T18:54:18.672Z,35.63
2018-04-14T18:56:49.709Z,35.86
2018-04-14T18:59:21.369Z,35.97
2018-04-14T19:01:52.037Z,36.13
2018-04-14T19:04:22.659Z,36.20
2018-04-14T19:06:54.154Z,36.17
2018-04-14T19:09:24.980Z,36.22
2018-04-14T19:11:56.031Z,36.45
2018-04-14T19:14:26.029Z,36.65
2018-04-14T19:16:57.710Z,37.01
2018-04-14T19:19:28.359Z,37.23
2018-04-14T19:21:59.260Z,37.24
2018-04-14T19:24:30.419Z,37.43
2018-04-14T19:26:59.939Z,37.63
2018-04-14T19:29:32.166Z,37.66
2018-04-14T19:32:01.110Z,37.86
2018-04-14T19:34:30.433Z,37.99
2018-04-14T19:36:59.541Z,37.75
2018-04-14T19:39:28.687Z,38.15
2018-04-14T19:41:57.646Z,38.40
2018-04-14T19:44:26.641Z,38.62
2018-04-14T19:46:55.746Z,38.77
2018-04-14T19:49:26.837Z,39.15
2018-04-14T19:51:55.922Z,39.35
2018-04-14T19:54:24.880Z,40.10
2018-04-14T19:56:53.826Z,40.55
2018-04-14T19:59:22.849Z,40.68
2018-04-14T20:01:51.833Z,41.11
2018-04-14T20:04:20.798Z,41.49
2018-04-14T20:06:49.689Z,41.68
2018-04-14T20:09:18.661Z,42.04
2018-04-14T20:11:47.603Z,42.11
2018-04-14T20:14:16.682Z,42.05
2018-04-14T20:16:45.629Z,42.18
2018-04-14T20:19:14.910Z,42.76
2018-04-14T20:21:44.218Z,44.21
2018-04-14T20:24:13.319Z,43.92
2018-04-14T20:26:42.590Z,46.04
2018-04-14T20:29:11.652Z,45.19
2018-04-14T20:31:40.691Z,44.51
2018-04-14T20:34:09.841Z,44.60
2018-04-14T20:36:39.226Z,44.52
2018-04-14T20:39:08.195Z,44.61
2018-04-14T20:41:37.506Z,44.75
2018-04-14T20:44:06.625Z,44.74
2018-04-14T20:46:35.581Z,44.82
2018-04-14T20:49:04.570Z,44.90
2018-04-14T20:51:35.064Z,45.08
2018-04-14T20:54:04.202Z,45.42
2018-04-14T20:56:33.441Z,45.45
2018-04-14T20:59:02.535Z,46.53
2018-04-14T21:01:31.786Z,47.14
2018-04-14T21:04:01.060Z,46.96
2018-04-14T21:06:30.097Z,47.28
2018-04-14T21:08:59.347Z,47.38
2018-04-14T21:11:28.832Z,47.33
2018-04-14T21:13:57.898Z,47.10
2018-04-14T21:16:27.325Z,47.33
2018-04-14T21:18:56.917Z,47.27
2018-04-14T21:21:26.589Z,47.47
2018-04-14T21:23:55.554Z,47.60
2018-04-14T21:26:24.251Z,47.70
2018-04-14T21:28:53.679Z,48.24
2018-04-14T21:31:23.418Z,48.50
2018-04-14T21:33:53.083Z,48.56
2018-04-14T21:36:24.143Z,48.86
2018-04-14T21:38:53.128Z,48.89
2018-04-14T21:41:24.788Z,49.19
2018-04-14T21:43:55.814Z,49.19
2018-04-14T21:46:26.621Z,49.32
2018-04-14T21:48:57.423Z,49.57
2018-04-14T21:51:27.978Z,49.75
2018-04-14T21:54:02.023Z,49.80
2018-04-14T21:56:32.668Z,49.82
2018-04-14T21:59:02.166Z,50.07
2018-04-14T22:01:31.973Z,50.35
2018-04-14T22:04:01.446Z,50.43
2018-04-14T22:06:32.089Z,50.73
2018-04-14T22:09:03.670Z,50.72
2018-04-14T22:11:36.134Z,50.72
2018-04-14T22:14:06.802Z,50.92
2018-04-14T22:16:38.040Z,50.89
2018-04-14T22:19:08.586Z,50.86
2018-04-14T22:21:40.290Z,51.06
2018-04-14T22:24:13.063Z,51.53
2018-04-14T22:26:47.426Z,52.19
2018-04-14T22:29:16.504Z,51.94
2018-04-14T22:31:45.550Z,51.91
2018-04-14T22:34:14.485Z,52.19
2018-04-14T22:36:43.509Z,52.25
2018-04-14T22:39:14.298Z,52.49
2018-04-14T22:41:44.828Z,52.80
2018-04-14T22:44:15.487Z,52.71
2018-04-14T22:46:47.163Z,52.81
2018-04-14T22:49:18.286Z,52.80
2018-04-14T22:51:49.381Z,52.91
2018-04-14T22:54:20.348Z,53.01
2018-04-14T22:56:52.208Z,53.30
2018-04-14T22:59:22.946Z,53.44
2018-04-14T23:01:53.592Z,53.67
2018-04-14T23:04:24.455Z,53.73
2018-04-14T23:06:54.470Z,53.94
2018-04-14T23:09:25.440Z,53.86
2018-04-14T23:11:54.459Z,53.65
2018-04-14T23:14:25.005Z,54.16
2018-04-14T23:16:56.747Z,54.68
2018-04-14T23:19:27.321Z,54.40
2018-04-14T23:21:58.367Z,54.40
2018-04-14T23:24:29.978Z,54.75
2018-04-14T23:27:00.803Z,54.67
2018-04-14T23:29:29.761Z,54.60
2018-04-14T23:31:58.766Z,54.68
2018-04-14T23:34:27.787Z,54.74
2018-04-14T23:36:56.749Z,54.90
2018-04-14T23:39:25.711Z,54.96
2018-04-14T23:41:54.743Z,55.03
2018-04-14T23:44:23.700Z,54.98
2018-04-14T23:46:52.714Z,55.22
2018-04-14T23:49:21.934Z,55.39
2018-04-14T23:51:51.175Z,55.74
2018-04-14T23:54:20.186Z,55.73
2018-04-14T23:56:49.201Z,55.81
2018-04-14T23:59:18.178Z,55.81
